createdAt,value
2022-12-29T00:00:10.424Z,13.10
2022-12-29T00:02:37.273Z,13.00
2022-12-29T00:05:04.508Z,13.10
2022-12-29T00:07:31.241Z,13.00
2022-12-29T00:09:57.981Z,13.20
2022-12-29T00:12:24.730Z,13.00
2022-12-29T00:15:10.124Z,13.20
2022-12-29T00:17:36.876Z,13.20
2022-12-29T00:20:22.762Z,13.00
2022-12-29T00:23:24.566Z,13.10
2022-12-29T00:26:09.621Z,13.10
2022-12-29T00:28:54.997Z,13.20
2022-12-29T00:31:40.454Z,13.10
2022-12-29T00:34:30.557Z,13.30
2022-12-29T00:36:57.793Z,13.40
2022-12-29T00:39:43.204Z,13.40
2022-12-29T00:42:29.338Z,13.40
2022-12-29T00:44:56.105Z,13.30
2022-12-29T00:47:22.872Z,13.20
2022-12-29T00:49:49.613Z,13.20
2022-12-29T00:52:16.387Z,13.30
2022-12-29T00:54:45.803Z,13.30
2022-12-29T00:57:13.556Z,13.50
2022-12-29T00:59:42.025Z,13.30
2022-12-29T01:02:11.223Z,13.30
2022-12-29T01:04:38.421Z,13.60
2022-12-29T01:07:05.590Z,13.40
2022-12-29T01:09:51.768Z,13.30
2022-12-29T01:12:38.786Z,13.40
2022-12-29T01:15:06.386Z,13.50
2022-12-29T01:17:34.175Z,13.50
2022-12-29T01:20:02.399Z,13.30
2022-12-29T01:22:29.381Z,13.20
2022-12-29T01:24:56.150Z,13.50
2022-12-29T01:27:22.952Z,13.30
2022-12-29T01:29:49.709Z,13.40
2022-12-29T01:32:16.462Z,13.50
2022-12-29T01:34:44.952Z,13.50
2022-12-29T01:37:12.464Z,13.30
2022-12-29T01:39:39.259Z,13.30
2022-12-29T01:42:06.218Z,13.40
2022-12-29T01:45:23.009Z,13.20
2022-12-29T01:47:59.548Z,13.20
2022-12-29T01:50:30.033Z,13.10
2022-12-29T01:53:06.931Z,13.40
2022-12-29T01:55:41.437Z,13.70
2022-12-29T01:58:08.496Z,13.20
2022-12-29T02:00:35.373Z,13.20
2022-12-29T02:03:02.234Z,13.20
2022-12-29T02:05:38.899Z,13.20
2022-12-29T02:08:06.032Z,13.10
2022-12-29T02:10:35.966Z,13.30
2022-12-29T02:13:02.739Z,13.00
2022-12-29T02:15:57.163Z,13.20
2022-12-29T02:19:07.784Z,13.10
2022-12-29T02:22:01.465Z,13.00
2022-12-29T02:24:53.876Z,13.20
2022-12-29T02:27:53.153Z,12.90
2022-12-29T02:30:44.367Z,13.00
2022-12-29T02:33:55.875Z,12.90
2022-12-29T02:36:39.076Z,12.80
2022-12-29T02:39:57.788Z,13.50
2022-12-29T02:42:38.038Z,12.90
2022-12-29T02:45:08.990Z,12.90
2022-12-29T02:48:08.466Z,13.10
2022-12-29T02:50:40.655Z,13.20
2022-12-29T02:53:13.056Z,13.00
2022-12-29T02:55:42.065Z,13.00
2022-12-29T02:58:20.504Z,12.80
2022-12-29T03:01:29.296Z,12.70
2022-12-29T03:04:17.625Z,12.90
2022-12-29T03:07:23.992Z,12.70
2022-12-29T03:10:02.069Z,12.70
2022-12-29T03:13:00.136Z,12.70
2022-12-29T03:15:59.789Z,12.60
2022-12-29T03:19:06.725Z,12.60
2022-12-29T03:22:05.680Z,12.50
2022-12-29T03:24:43.259Z,12.50
2022-12-29T03:27:16.273Z,12.40
2022-12-29T03:29:54.486Z,12.40
2022-12-29T03:32:29.629Z,12.50
2022-12-29T03:34:57.325Z,12.40
2022-12-29T03:37:31.906Z,12.40
2022-12-29T03:39:58.744Z,12.40
2022-12-29T03:42:30.913Z,12.40
2022-12-29T03:44:58.327Z,12.30
2022-12-29T03:47:26.051Z,12.30
2022-12-29T03:49:54.011Z,12.20
2022-12-29T03:52:20.754Z,13.00
2022-12-29T03:54:47.935Z,12.60
2022-12-29T03:57:14.690Z,12.50
2022-12-29T03:59:41.456Z,12.10
2022-12-29T04:02:08.335Z,12.30
2022-12-29T04:04:35.175Z,12.10
2022-12-29T04:07:01.923Z,12.50
2022-12-29T04:09:28.711Z,12.30
2022-12-29T04:11:55.447Z,12.20
2022-12-29T04:14:49.498Z,12.20
2022-12-29T04:17:31.522Z,12.20
2022-12-29T04:20:18.231Z,12.20
2022-12-29T04:22:44.973Z,12.40
2022-12-29T04:25:11.928Z,12.40
2022-12-29T04:27:38.725Z,12.40
2022-12-29T04:30:06.456Z,12.20
2022-12-29T04:32:33.195Z,12.20
2022-12-29T04:34:59.941Z,12.20
2022-12-29T04:37:26.675Z,12.20
2022-12-29T04:39:53.435Z,12.30
2022-12-29T04:42:20.176Z,12.00
2022-12-29T04:44:47.005Z,12.10
2022-12-29T04:47:13.754Z,12.10
2022-12-29T04:49:40.510Z,12.10
2022-12-29T04:52:09.189Z,12.20
2022-12-29T04:54:36.005Z,12.20
2022-12-29T04:57:02.843Z,12.30
2022-12-29T04:59:29.580Z,12.40
2022-12-29T05:01:56.420Z,12.10
2022-12-29T05:04:26.109Z,12.30
2022-12-29T05:06:52.838Z,12.40
2022-12-29T05:09:19.586Z,12.20
2022-12-29T05:11:46.343Z,12.20
2022-12-29T05:14:13.132Z,12.20
2022-12-29T05:16:39.908Z,12.40
2022-12-29T05:19:06.836Z,12.30
2022-12-29T05:21:34.453Z,12.30
2022-12-29T05:24:01.212Z,12.20
2022-12-29T05:26:27.970Z,12.60
2022-12-29T05:28:54.891Z,12.30
2022-12-29T05:31:21.711Z,12.20
2022-12-29T05:33:48.483Z,12.40
2022-12-29T05:36:15.256Z,12.40
2022-12-29T05:38:42.032Z,12.50
2022-12-29T05:41:09.550Z,12.50
2022-12-29T05:43:36.403Z,12.70
2022-12-29T05:46:04.488Z,12.60
2022-12-29T05:48:37.509Z,12.60
2022-12-29T05:51:04.908Z,12.60
2022-12-29T05:53:31.887Z,12.50
2022-12-29T05:55:58.754Z,12.50
2022-12-29T05:58:25.506Z,12.60
2022-12-29T06:00:52.377Z,12.50
2022-12-29T06:03:19.230Z,12.50
2022-12-29T06:05:47.229Z,12.60
2022-12-29T06:08:14.382Z,12.50
2022-12-29T06:10:41.272Z,12.60
2022-12-29T06:13:08.123Z,12.50
2022-12-29T06:15:35.779Z,12.60
2022-12-29T06:18:02.624Z,12.50
2022-12-29T06:20:29.950Z,12.50
2022-12-29T06:22:56.803Z,12.60
2022-12-29T06:25:23.677Z,12.70
2022-12-29T06:27:50.438Z,12.60
2022-12-29T06:30:17.937Z,12.50
2022-12-29T06:32:45.328Z,12.60
2022-12-29T06:35:12.261Z,12.70
2022-12-29T06:37:39.017Z,12.60
2022-12-29T06:40:06.667Z,12.60
2022-12-29T06:42:33.855Z,12.60
2022-12-29T06:45:01.595Z,12.50
2022-12-29T06:47:28.551Z,12.50
2022-12-29T06:49:55.348Z,12.40
2022-12-29T06:52:22.112Z,12.50
2022-12-29T06:54:48.865Z,12.40
2022-12-29T06:57:15.600Z,12.60
2022-12-29T06:59:42.496Z,12.50
2022-12-29T07:02:12.219Z,12.50
2022-12-29T07:04:39.143Z,12.50
2022-12-29T07:07:05.929Z,12.50
2022-12-29T07:09:32.880Z,12.70
2022-12-29T07:12:00.375Z,12.80
2022-12-29T07:14:27.150Z,12.60
2022-12-29T07:16:54.047Z,12.70
2022-12-29T07:19:21.142Z,12.60
2022-12-29T07:21:47.879Z,12.80
2022-12-29T07:24:14.631Z,12.80
2022-12-29T07:26:42.412Z,12.80
2022-12-29T07:29:09.180Z,12.80
2022-12-29T07:31:35.975Z,12.90
2022-12-29T07:34:02.763Z,12.80
2022-12-29T07:36:34.428Z,12.80
2022-12-29T07:39:02.112Z,12.80
2022-12-29T07:41:28.883Z,12.80
2022-12-29T07:43:55.612Z,12.80
2022-12-29T07:46:54.463Z,12.80
2022-12-29T07:49:09.070Z,12.70
2022-12-29T07:51:35.942Z,12.60
2022-12-29T07:54:02.735Z,12.60
2022-12-29T07:56:29.579Z,12.70
2022-12-29T07:58:56.347Z,12.60
2022-12-29T08:01:24.409Z,12.60
2022-12-29T08:03:56.838Z,12.70
2022-12-29T08:06:24.213Z,12.60
2022-12-29T08:08:51.007Z,12.60
2022-12-29T08:11:17.794Z,12.70
2022-12-29T08:13:44.599Z,12.70
2022-12-29T08:16:11.390Z,12.70
2022-12-29T08:18:38.182Z,12.80
2022-12-29T08:21:06.590Z,12.80
2022-12-29T08:23:33.720Z,12.70
2022-12-29T08:26:02.064Z,12.80
2022-12-29T08:28:29.698Z,12.80
2022-12-29T08:31:00.734Z,12.80
2022-12-29T08:33:28.509Z,12.80
2022-12-29T08:36:01.536Z,13.10
2022-12-29T08:38:29.886Z,12.90
2022-12-29T08:40:58.366Z,12.80
2022-12-29T08:43:26.211Z,12.80
2022-12-29T08:45:53.393Z,12.70
2022-12-29T08:48:22.966Z,12.80
2022-12-29T08:50:50.820Z,12.80
2022-12-29T08:53:18.800Z,12.90
2022-12-29T08:56:00.844Z,12.90
2022-12-29T08:58:31.638Z,13.00
2022-12-29T09:00:59.619Z,13.10
2022-12-29T09:03:55.110Z,13.00
2022-12-29T09:06:16.389Z,13.00
2022-12-29T09:08:43.402Z,13.10
2022-12-29T09:11:21.574Z,13.10
2022-12-29T09:13:49.222Z,13.20
2022-12-29T09:16:17.376Z,13.20
2022-12-29T09:18:44.784Z,13.20
2022-12-29T09:21:13.216Z,13.10
2022-12-29T09:23:41.377Z,13.50
2022-12-29T09:26:08.987Z,13.40
2022-12-29T09:28:36.506Z,13.20
2022-12-29T09:31:03.688Z,13.40
2022-12-29T09:33:30.725Z,13.50
2022-12-29T09:35:59.261Z,13.10
2022-12-29T09:38:27.598Z,13.40
2022-12-29T09:41:21.877Z,13.20
2022-12-29T09:44:18.966Z,13.20
2022-12-29T09:46:50.796Z,13.30
2022-12-29T09:49:50.416Z,13.90
2022-12-29T09:52:37.444Z,13.50
2022-12-29T09:55:28.480Z,13.90
2022-12-29T09:58:50.241Z,13.60
2022-12-29T10:02:03.957Z,13.60
2022-12-29T10:04:49.775Z,13.10
2022-12-29T10:08:42.240Z,13.10
2022-12-29T10:12:22.258Z,13.30
2022-12-29T10:15:22.894Z,13.10
2022-12-29T10:18:42.135Z,13.10
2022-12-29T10:21:58.539Z,13.30
2022-12-29T10:25:15.048Z,13.20
2022-12-29T10:32:14.135Z,13.60
2022-12-29T10:35:22.933Z,13.00
2022-12-29T10:39:03.189Z,13.10
2022-12-29T10:41:45.344Z,13.30
2022-12-29T10:44:16.960Z,13.60
2022-12-29T10:46:45.219Z,13.00
2022-12-29T10:49:21.783Z,13.00
2022-12-29T10:51:52.888Z,13.00
2022-12-29T10:54:46.413Z,13.00
2022-12-29T10:57:29.922Z,13.00
2022-12-29T10:59:56.798Z,12.80
2022-12-29T11:02:58.501Z,12.50
2022-12-29T11:05:54.235Z,12.60
2022-12-29T11:08:30.987Z,12.70
2022-12-29T11:11:07.847Z,12.90
2022-12-29T11:13:57.430Z,12.60
2022-12-29T11:16:35.739Z,12.70
2022-12-29T11:19:03.439Z,12.50
2022-12-29T11:21:41.293Z,13.00
2022-12-29T11:24:26.585Z,12.50
2022-12-29T11:26:59.557Z,12.50
2022-12-29T11:29:30.042Z,12.50
2022-12-29T11:32:00.103Z,12.70
2022-12-29T11:34:36.189Z,12.70
2022-12-29T11:37:39.741Z,12.50
2022-12-29T11:40:18.007Z,12.60
2022-12-29T11:42:58.108Z,12.90
2022-12-29T11:45:29.830Z,13.00
2022-12-29T11:48:10.646Z,13.10
2022-12-29T11:50:41.674Z,13.00
2022-12-29T11:53:45.965Z,13.20
2022-12-29T11:56:17.743Z,13.10
2022-12-29T11:58:45.088Z,12.70
2022-12-29T12:01:22.269Z,13.40
2022-12-29T12:04:09.240Z,12.90
2022-12-29T12:06:47.162Z,13.00
2022-12-29T12:09:29.987Z,13.50
2022-12-29T12:11:58.529Z,13.20
2022-12-29T12:14:34.817Z,12.90
2022-12-29T12:17:11.362Z,13.30
2022-12-29T12:20:22.970Z,12.90
2022-12-29T12:23:09.565Z,13.20
2022-12-29T12:25:44.268Z,13.20
2022-12-29T12:28:27.697Z,13.30
2022-12-29T12:31:01.870Z,13.30
2022-12-29T12:33:43.991Z,13.20
2022-12-29T12:36:48.955Z,13.20
2022-12-29T12:39:47.462Z,13.60
2022-12-29T12:42:47.496Z,13.20
2022-12-29T12:45:54.580Z,13.40
2022-12-29T12:49:25.409Z,13.80
2022-12-29T12:52:19.920Z,13.10
2022-12-29T12:55:26.393Z,13.20
2022-12-29T12:58:16.300Z,13.30
2022-12-29T13:01:04.259Z,13.40
2022-12-29T13:04:10.969Z,13.20
2022-12-29T13:07:08.770Z,13.30
2022-12-29T13:10:45.899Z,13.90
2022-12-29T13:13:57.734Z,13.00
2022-12-29T13:16:50.437Z,13.20
2022-12-29T13:19:32.301Z,13.60
2022-12-29T13:22:08.014Z,13.10
2022-12-29T13:25:17.475Z,13.30
2022-12-29T13:27:57.965Z,13.20
2022-12-29T13:30:35.933Z,13.40
2022-12-29T13:33:31.585Z,13.10
2022-12-29T13:36:10.151Z,13.30
2022-12-29T13:38:43.684Z,13.30
2022-12-29T13:41:19.949Z,13.30
2022-12-29T13:43:48.809Z,13.20
2022-12-29T13:46:23.428Z,13.20
2022-12-29T13:49:08.360Z,13.20
2022-12-29T13:51:36.651Z,13.30
2022-12-29T13:54:58.145Z,13.30
2022-12-29T13:57:53.873Z,13.20
2022-12-29T14:00:23.276Z,13.10
2022-12-29T14:03:51.665Z,13.20
2022-12-29T14:06:29.103Z,13.40
2022-12-29T14:09:05.559Z,13.40
2022-12-29T14:11:39.115Z,13.20
2022-12-29T14:14:31.505Z,13.30
2022-12-29T14:17:14.986Z,13.60
2022-12-29T14:19:44.723Z,13.50
2022-12-29T14:22:12.749Z,13.40
2022-12-29T14:24:46.471Z,13.40
2022-12-29T14:27:13.133Z,13.40
2022-12-29T14:29:39.778Z,13.20
2022-12-29T14:32:24.941Z,13.00
2022-12-29T14:34:57.048Z,12.90
2022-12-29T14:37:33.048Z,12.90
2022-12-29T14:40:18.980Z,13.20
2022-12-29T14:42:48.134Z,13.00
2022-12-29T14:45:14.759Z,13.00
2022-12-29T14:47:49.120Z,13.10
2022-12-29T14:50:23.342Z,12.90
2022-12-29T14:53:03.756Z,12.80
2022-12-29T14:55:41.669Z,12.80
2022-12-29T14:58:15.775Z,13.30
2022-12-29T15:00:43.447Z,12.90
2022-12-29T15:03:46.590Z,12.80
2022-12-29T15:06:19.635Z,12.70
2022-12-29T15:08:55.957Z,12.90
2022-12-29T15:11:29.657Z,13.00
2022-12-29T15:13:56.384Z,12.90
2022-12-29T15:16:33.898Z,12.90
2022-12-29T15:19:01.097Z,13.10
2022-12-29T15:21:32.988Z,12.90
2022-12-29T15:24:00.537Z,12.70
2022-12-29T15:26:40.583Z,12.70
2022-12-29T15:29:44.342Z,12.80
2022-12-29T15:32:16.919Z,12.70
2022-12-29T15:34:50.427Z,12.70
2022-12-29T15:37:36.960Z,13.00
2022-12-29T15:40:04.594Z,12.70
2022-12-29T15:43:05.137Z,12.80
2022-12-29T15:45:35.720Z,12.90
2022-12-29T15:48:05.881Z,12.80
2022-12-29T15:50:35.784Z,12.60
2022-12-29T15:53:03.765Z,12.80
2022-12-29T15:55:37.816Z,12.60
2022-12-29T15:58:16.838Z,12.50
2022-12-29T16:00:54.102Z,12.70
2022-12-29T16:03:22.472Z,12.60
2022-12-29T16:06:08.259Z,12.70
2022-12-29T16:08:40.684Z,12.70
2022-12-29T16:11:39.792Z,12.60
2022-12-29T16:14:20.799Z,12.50
2022-12-29T16:16:50.398Z,12.50
2022-12-29T16:19:33.049Z,12.90
2022-12-29T16:22:01.868Z,12.50
2022-12-29T16:24:33.298Z,12.80
2022-12-29T16:27:21.471Z,12.50
2022-12-29T16:29:52.899Z,12.70
2022-12-29T16:32:32.161Z,12.60
2022-12-29T16:35:27.690Z,12.50
2022-12-29T16:38:18.534Z,12.70
2022-12-29T16:41:02.969Z,12.40
2022-12-29T16:43:35.999Z,12.50
2022-12-29T16:46:28.696Z,12.40
2022-12-29T16:48:57.273Z,12.40
2022-12-29T16:51:35.992Z,12.40
2022-12-29T16:54:04.015Z,13.00
2022-12-29T16:56:35.641Z,12.50
2022-12-29T16:59:29.922Z,12.50
2022-12-29T17:01:59.207Z,12.40
2022-12-29T17:04:26.089Z,12.60
2022-12-29T17:06:52.830Z,12.50
2022-12-29T17:09:30.387Z,12.40
2022-12-29T17:12:05.350Z,12.40
2022-12-29T17:14:57.656Z,12.40
2022-12-29T17:17:34.660Z,12.60
2022-12-29T17:20:18.159Z,12.40
2022-12-29T17:22:45.604Z,12.20
2022-12-29T17:25:18.581Z,12.10
2022-12-29T17:27:49.059Z,12.40
2022-12-29T17:30:25.051Z,12.10
2022-12-29T17:32:57.614Z,12.20
2022-12-29T17:35:25.489Z,12.00
2022-12-29T17:37:52.971Z,12.20
2022-12-29T17:40:27.320Z,12.00
2022-12-29T17:42:56.804Z,11.90
2022-12-29T17:45:30.089Z,12.00
2022-12-29T17:47:57.340Z,12.10
2022-12-29T17:50:26.171Z,11.80
2022-12-29T17:53:00.771Z,12.00
2022-12-29T17:55:36.841Z,11.90
2022-12-29T17:58:25.824Z,11.80
2022-12-29T18:01:01.763Z,11.80
2022-12-29T18:03:35.831Z,11.70
2022-12-29T18:06:06.429Z,11.90
2022-12-29T18:08:34.541Z,12.30
2022-12-29T18:11:01.768Z,12.10
2022-12-29T18:13:43.675Z,11.90
2022-12-29T18:16:14.182Z,12.30
2022-12-29T18:18:41.032Z,11.80
2022-12-29T18:21:19.589Z,11.80
2022-12-29T18:23:48.297Z,12.00
2022-12-29T18:26:28.593Z,11.80
2022-12-29T18:28:57.684Z,11.90
2022-12-29T18:31:28.071Z,11.80
2022-12-29T18:33:57.057Z,11.90
2022-12-29T18:36:24.168Z,11.80
2022-12-29T18:38:53.819Z,11.90
2022-12-29T18:41:32.002Z,12.00
2022-12-29T18:44:00.139Z,11.90
2022-12-29T18:46:27.257Z,12.00
2022-12-29T18:48:54.439Z,12.10
2022-12-29T18:51:24.016Z,12.00
2022-12-29T18:53:53.740Z,12.10
2022-12-29T18:56:23.840Z,11.90
2022-12-29T18:58:53.021Z,12.00
2022-12-29T19:01:24.258Z,12.00
2022-12-29T19:03:51.597Z,11.90
2022-12-29T19:06:20.785Z,12.00
2022-12-29T19:08:47.571Z,11.80
2022-12-29T19:11:14.307Z,11.70
2022-12-29T19:13:41.077Z,11.70
2022-12-29T19:16:17.634Z,11.70
2022-12-29T19:18:47.417Z,11.80
2022-12-29T19:21:19.906Z,11.60
2022-12-29T19:23:46.790Z,11.60
2022-12-29T19:26:34.319Z,11.60
2022-12-29T19:29:01.282Z,11.60
2022-12-29T19:31:28.097Z,11.50
2022-12-29T19:33:55.401Z,12.00
2022-12-29T19:36:22.571Z,12.00
2022-12-29T19:38:49.424Z,12.40
2022-12-29T19:41:16.336Z,12.80
2022-12-29T19:43:44.256Z,13.00
2022-12-29T19:46:16.483Z,12.90
2022-12-29T19:48:43.675Z,12.40
2022-12-29T19:51:15.431Z,12.40
2022-12-29T19:53:43.189Z,12.70
2022-12-29T19:56:10.859Z,12.30
2022-12-29T19:58:42.613Z,12.50
2022-12-29T20:01:16.057Z,12.50
2022-12-29T20:03:42.996Z,12.00
2022-12-29T20:06:11.348Z,11.70
2022-12-29T20:08:39.310Z,11.10
2022-12-29T20:11:09.766Z,11.80
2022-12-29T20:13:36.603Z,11.40
2022-12-29T20:16:07.656Z,11.40
2022-12-29T20:18:35.918Z,11.60
2022-12-29T20:21:18.934Z,11.80
2022-12-29T20:23:46.542Z,12.10
2022-12-29T20:26:19.800Z,12.20
2022-12-29T20:28:46.779Z,12.20
2022-12-29T20:31:25.879Z,11.60
2022-12-29T20:33:53.268Z,11.20
2022-12-29T20:36:27.490Z,10.70
2022-12-29T20:38:56.138Z,11.20
2022-12-29T20:41:23.425Z,11.20
2022-12-29T20:43:53.002Z,11.70
2022-12-29T20:46:21.836Z,11.60
2022-12-29T20:48:50.856Z,11.70
2022-12-29T20:51:19.410Z,11.60
2022-12-29T20:53:46.968Z,11.50
2022-12-29T20:56:18.510Z,11.50
2022-12-29T20:59:25.685Z,11.60
2022-12-29T21:01:33.947Z,12.00
2022-12-29T21:04:00.819Z,11.90
2022-12-29T21:06:27.629Z,12.00
2022-12-29T21:08:55.049Z,11.90
2022-12-29T21:11:22.509Z,11.70
2022-12-29T21:13:49.754Z,11.60
2022-12-29T21:16:18.855Z,11.50
2022-12-29T21:18:45.724Z,11.60
2022-12-29T21:21:19.180Z,11.40
2022-12-29T21:23:46.028Z,11.40
2022-12-29T21:26:17.849Z,11.30
2022-12-29T21:28:46.084Z,10.50
2022-12-29T21:31:29.983Z,10.30
2022-12-29T21:33:57.944Z,10.70
2022-12-29T21:36:25.432Z,10.80
2022-12-29T21:38:53.345Z,11.20
2022-12-29T21:41:21.034Z,10.20
2022-12-29T21:44:07.116Z,10.80
2022-12-29T21:46:36.560Z,10.70
2022-12-29T21:49:05.539Z,10.50
2022-12-29T21:51:50.697Z,10.60
2022-12-29T21:54:44.859Z,10.50
2022-12-29T21:57:33.717Z,10.00
2022-12-29T22:00:19.582Z,10.20
2022-12-29T22:03:04.874Z,10.30
2022-12-29T22:05:50.361Z,10.10
2022-12-29T22:08:35.532Z,10.20
2022-12-29T22:11:26.617Z,9.80
2022-12-29T22:13:55.852Z,10.30
2022-12-29T22:16:24.985Z,10.60
2022-12-29T22:18:52.359Z,10.00
2022-12-29T22:21:19.803Z,10.00
2022-12-29T22:23:46.629Z,9.90
2022-12-29T22:26:14.449Z,9.90
2022-12-29T22:28:43.547Z,9.90
2022-12-29T22:31:29.357Z,9.90
2022-12-29T22:33:58.225Z,9.80
2022-12-29T22:36:25.520Z,10.30
2022-12-29T22:38:52.609Z,10.60
2022-12-29T22:41:20.116Z,10.10
2022-12-29T22:43:46.869Z,10.30
2022-12-29T22:46:13.911Z,9.80
2022-12-29T22:48:41.430Z,9.80
2022-12-29T22:51:08.328Z,10.10
2022-12-29T22:53:35.408Z,10.20
2022-12-29T22:56:12.475Z,9.70
2022-12-29T22:58:45.208Z,9.50
2022-12-29T23:01:15.860Z,10.10
2022-12-29T23:03:43.380Z,10.10
2022-12-29T23:06:14.465Z,10.40
2022-12-29T23:08:41.254Z,9.70
2022-12-29T23:11:11.532Z,9.60
2022-12-29T23:13:40.953Z,9.70
2022-12-29T23:16:08.132Z,10.20
2022-12-29T23:18:35.026Z,9.70
2022-12-29T23:21:01.911Z,10.20
2022-12-29T23:23:49.491Z,9.70
2022-12-29T23:26:18.603Z,9.90
2022-12-29T23:28:45.989Z,10.00
2022-12-29T23:31:13.736Z,9.60
2022-12-29T23:33:40.922Z,9.20
2022-12-29T23:36:08.507Z,9.40
2022-12-29T23:38:35.760Z,9.40
2022-12-29T23:41:02.637Z,9.00
2022-12-29T23:43:29.375Z,9.20
2022-12-29T23:45:56.102Z,9.10
2022-12-29T23:48:22.844Z,8.90
2022-12-29T23:50:49.590Z,8.90
2022-12-29T23:53:16.379Z,9.00
2022-12-29T23:55:44.185Z,9.20
2022-12-29T23:58:11.185Z,9.30
